»·PEaware :: N679HB KSMX-KBFL

N679HB :: KSMX-KBFL

FLIGHT INFORMATION

Flight Status: Arrived
Operator: Privately registered:
United States
More flights under this callsign
Pilot: Henrik G. (22897)
Aircraft: AERMACCHI WARRIOR
(F260)
More flights by this aircraft type
Origin: KSMX Santa Maria Pub/Capt Hancock
United States
Destination: KBFL Meadows
United States
More flights between these airports :: More routes between these airports
Route: +
File this flight plan on PilotEdge
Remarks:
Altitude:
(Current/Filed)
0ft
Speed:
(Current/Filed)
0kts
Departed: 27-Jan-19 12:52 PM
Arrived: 27-Jan-19 01:32 PM
Distance/Time
Traveled:
76nm/0:40
Distance/Time
To Go:
Arrived

Flight Plot

Page will automatically refresh every two minutes.


Map Options




Map Legend


Flown Route
Filed Route
Departure Airport
Arrival Airport
Navaid (VOR, NDB)
Fix

Horizontal Profiles

Position Reports

Time Latitude Longitude Heading Altitude Ground
Speed
27-Jan-19 12:49 34.893382 -120.445226 188 264ft 0kts
27-Jan-19 12:50 34.892927 -120.445547 241 264ft 13kts
27-Jan-19 12:51 34.908648 -120.463937 316 796ft 115kts
27-Jan-19 12:52 34.933383 -120.491320 319 2232ft 120kts
27-Jan-19 12:53 34.955385 -120.497871 91 3524ft 135kts
27-Jan-19 12:54 34.958509 -120.451993 67 4466ft 142kts
27-Jan-19 12:55 34.975896 -120.405792 64 5093ft 155kts
27-Jan-19 12:56 34.985567 -120.353976 78 5543ft 166kts
27-Jan-19 12:57 34.994382 -120.297760 71 5650ft 178kts
27-Jan-19 12:58 35.019670 -120.245025 50 5457ft 180kts
27-Jan-19 12:59 35.049241 -120.201306 57 5157ft 164kts
27-Jan-19 13:00 35.065635 -120.156321 64 5331ft 142kts
27-Jan-19 13:01 35.081469 -120.114321 59 5537ft 134kts
27-Jan-19 13:02 35.097277 -120.072931 68 5533ft 135kts
27-Jan-19 13:03 35.110427 -120.031356 61 5498ft 124kts
27-Jan-19 13:04 35.128447 -119.992871 58 5507ft 137kts
27-Jan-19 13:05 35.146699 -119.954772 72 5645ft 134kts
27-Jan-19 13:06 35.162541 -119.911245 62 5475ft 140kts
27-Jan-19 13:07 35.178423 -119.868860 62 5524ft 136kts
27-Jan-19 13:08 35.194228 -119.826875 62 5526ft 134kts
27-Jan-19 13:09 35.209873 -119.785611 62 5527ft 132kts
27-Jan-19 13:10 35.225415 -119.745007 62 5528ft 131kts
27-Jan-19 13:11 35.240951 -119.704506 62 5529ft 130kts
27-Jan-19 13:12 35.256871 -119.663140 62 5559ft 145kts
27-Jan-19 13:13 35.274011 -119.618719 62 5556ft 141kts
27-Jan-19 13:14 35.290726 -119.575354 62 5555ft 140kts
27-Jan-19 13:15 35.307314 -119.532299 62 5556ft 139kts
27-Jan-19 13:16 35.323893 -119.489261 62 5558ft 139kts
27-Jan-19 13:17 35.340497 -119.446161 62 5560ft 139kts
27-Jan-19 13:18 35.357073 -119.403136 62 5562ft 139kts
27-Jan-19 13:19 35.373626 -119.360170 62 5564ft 139kts
27-Jan-19 13:20 35.390589 -119.316238 63 5153ft 141kts
27-Jan-19 13:21 35.407416 -119.273339 63 4246ft 142kts
27-Jan-19 13:22 35.424698 -119.230295 63 3236ft 137kts
27-Jan-19 13:23 35.441923 -119.188380 63 2234ft 140kts
27-Jan-19 13:24 35.438859 -119.140939 102 1694ft 138kts
27-Jan-19 13:25 35.430638 -119.099263 110 1593ft 108kts
27-Jan-19 13:26 35.409555 -119.074237 146 1568ft 106kts
27-Jan-19 13:27 35.384660 -119.055460 137 1565ft 105kts
27-Jan-19 13:28 35.390088 -119.029577 34 1506ft 96kts
27-Jan-19 13:29 35.413488 -119.030860 312 1110ft 100kts
27-Jan-19 13:30 35.432191 -119.054079 317 555ft 87kts
27-Jan-19 13:31 35.442304 -119.064541 89 497ft 0kts
27-Jan-19 13:32 35.441839 -119.063649 134 497ft 11kts
27-Jan-19 13:33 35.438090 -119.059179 131 497ft 23kts
27-Jan-19 13:34 35.436059 -119.053745 93 497ft 11kts
27-Jan-19 13:35 35.435717 -119.052323 189 497ft 0kts
27-Jan-19 13:36 35.435717 -119.052323 189 497ft 0kts
27-Jan-19 13:37 35.435717 -119.052323 189 497ft 0kts
27-Jan-19 13:39 35.435717 -119.052323 189 497ft 0kts
27-Jan-19 13:40 35.435717 -119.052323 189 497ft 0kts

Navigation Log

Ident Type
Flight plan parsing failed, navigation log unavailable